Time;durP1;ratioP1;P1;durP2;ratioP2;P2;SDS_P1;SDS_P2;PMS_P1;PMS_P2;Temp;Humidity;BMP_temperature;BMP_pressure;BME280_temperature;BME280_humidity;BME280_pressure;Samples;Min_cycle;Max_cycle;Signal;HPM_P1;HPM_P2
2022/01/25 00:08:51;;;;;;;69.38;51.60;;;;;;;6.29;55.04;103602.56;5149584;28;20421;-45
2022/01/25 00:25:57;;;;;;;70.47;50.72;;;;;;;6.07;55.11;103580.59;5138294;28;20415;-52
2022/01/25 00:28:44;;;;;;;76.05;52.78;;;;;;;6.26;55.20;103618.41;5142653;28;20434;-45
2022/01/25 00:31:17;;;;;;;75.90;53.20;;;;;;;5.91;55.08;103557.47;5143554;28;20895;-44
2022/01/25 00:33:52;;;;;;;74.05;53.70;;;;;;;6.32;55.20;103614.69;5144537;28;20460;-45
2022/01/25 00:36:27;;;;;;;75.65;53.17;;;;;;;6.31;55.05;103608.59;5140925;28;20481;-46
2022/01/25 00:39:01;;;;;;;76.37;54.00;;;;;;;6.30;55.28;103599.03;5145208;28;20497;-43
2022/01/25 00:41:34;;;;;;;75.28;53.70;;;;;;;6.28;55.10;103590.34;5137539;28;20424;-45
2022/01/25 00:44:09;;;;;;;76.67;54.63;;;;;;;6.27;55.22;103595.66;5143631;28;20908;-44
2022/01/25 00:46:41;;;;;;;74.82;54.42;;;;;;;6.18;55.33;103589.81;5145381;28;20422;-45
2022/01/25 00:49:25;;;;;;;78.47;54.78;;;;;;;6.09;55.54;103589.28;5143017;28;20512;-46
2022/01/25 00:52:05;;;;;;;77.93;55.63;;;;;;;6.06;55.42;103594.63;5144727;28;20422;-44
2022/01/25 00:54:41;;;;;;;77.13;54.03;;;;;;;6.11;55.31;103597.97;5143154;28;20438;-45
2022/01/25 00:57:13;;;;;;;78.95;54.88;;;;;;;6.12;55.62;103597.03;5142038;28;20843;-54
2022/01/25 00:59:47;;;;;;;75.22;53.42;;;;;;;6.12;55.57;103604.91;5147945;28;20505;-45
2022/01/25 01:02:20;;;;;;;73.55;53.85;;;;;;;6.09;55.51;103594.53;5141158;28;20529;-46
2022/01/25 01:04:53;;;;;;;76.30;55.67;;;;;;;6.08;55.61;103595.44;5144893;28;20557;-44
2022/01/25 01:07:26;;;;;;;79.78;56.22;;;;;;;6.10;55.36;103585.72;5136686;28;20498;-44
2022/01/25 01:10:00;;;;;;;75.25;54.53;;;;;;;6.11;55.55;103593.56;5139015;28;20418;-45
2022/01/25 01:13:05;;;;;;;74.60;53.97;;;;;;;6.14;55.33;103582.09;5142901;28;20477;-45
2022/01/25 01:15:40;;;;;;;78.17;55.63;;;;;;;6.09;55.50;103584.03;5143403;28;20468;-44
2022/01/25 01:29:48;;;;;;;74.88;53.00;;;;;;;5.99;55.70;103570.38;5142074;28;20398;-58
2022/01/25 01:32:46;;;;;;;77.50;54.33;;;;;;;5.93;55.78;103563.56;5147289;28;20430;-48
2022/01/25 01:35:37;;;;;;;76.50;53.88;;;;;;;5.91;56.00;103574.97;5141698;28;20430;-49
2022/01/25 01:38:37;;;;;;;79.15;57.45;;;;;;;5.91;55.84;103573.22;5138841;28;20422;-46
2022/01/25 01:41:27;;;;;;;79.75;55.13;;;;;;;5.86;56.06;103572.53;5134265;28;20541;-45
2022/01/25 01:44:03;;;;;;;73.25;55.75;;;;;;;5.86;55.74;103571.69;5142716;28;20411;-46
2022/01/25 01:46:40;;;;;;;75.53;55.53;;;;;;;5.90;55.83;103574.13;5134165;28;20461;-46
2022/01/25 01:49:13;;;;;;;74.53;55.00;;;;;;;5.96;55.81;103573.09;5148121;28;20428;-55
2022/01/25 01:51:48;;;;;;;71.03;52.20;;;;;;;5.98;55.71;103572.16;5149002;28;20436;-48
2022/01/25 01:54:22;;;;;;;76.47;56.88;;;;;;;6.00;55.69;103579.94;5148961;28;20442;-45
2022/01/25 01:56:55;;;;;;;73.82;53.55;;;;;;;5.99;55.67;103571.22;5146307;28;20481;-47
2022/01/25 01:59:28;;;;;;;71.85;52.58;;;;;;;5.86;55.66;103548.94;5150354;28;20490;-45
2022/01/25 02:02:01;;;;;;;75.38;54.25;;;;;;;5.97;55.70;103578.28;5142732;28;20591;-51
2022/01/25 02:04:34;;;;;;;68.55;51.53;;;;;;;5.85;56.00;103576.03;5148378;28;20414;-45
2022/01/25 02:07:06;;;;;;;68.47;51.45;;;;;;;5.74;56.09;103554.59;5144072;28;20496;-44
2022/01/25 02:09:40;;;;;;;74.65;54.35;;;;;;;5.86;56.09;103567.28;5147106;28;20407;-48
2022/01/25 02:12:12;;;;;;;70.82;52.55;;;;;;;5.95;56.00;103569.63;5151265;28;20446;-44
2022/01/25 02:14:47;;;;;;;70.93;51.70;;;;;;;5.99;55.73;103565.13;5145249;28;20401;-48
2022/01/25 02:23:18;;;;;;;64.97;47.90;;;;;;;5.97;56.00;103565.16;5143804;28;20795;-43
2022/01/25 02:25:53;;;;;;;62.17;46.97;;;;;;;5.76;55.95;103523.91;5147624;28;20957;-45
2022/01/25 02:28:31;;;;;;;64.90;48.33;;;;;;;5.93;55.84;103573.22;5147817;28;20411;-45
2022/01/25 02:31:05;;;;;;;66.37;47.67;;;;;;;5.92;55.90;103558.34;5142435;28;20617;-45
2022/01/25 02:33:39;;;;;;;66.85;48.65;;;;;;;5.85;55.99;103547.19;5147432;28;20438;-46
2022/01/25 02:36:16;;;;;;;64.60;48.75;;;;;;;5.80;56.01;103556.16;5147831;28;20462;-49
2022/01/25 02:38:49;;;;;;;68.80;50.40;;;;;;;5.85;56.08;103552.44;5143678;28;20828;-44
2022/01/25 02:41:21;;;;;;;62.88;48.15;;;;;;;5.85;56.06;103555.06;5144307;28;20536;-44
2022/01/25 02:43:55;;;;;;;63.17;46.73;;;;;;;5.79;56.04;103550.03;5143507;28;20487;-44
2022/01/25 02:49:17;;;;;;;65.40;50.50;;;;;;;5.90;55.95;103553.16;5117616;28;20412;-48
2022/01/25 02:51:51;;;;;;;68.20;51.13;;;;;;;5.91;55.98;103554.84;5144084;28;20422;-47
2022/01/25 02:54:23;;;;;;;67.43;49.53;;;;;;;5.90;56.03;103542.66;5144445;28;20862;-53
2022/01/25 02:56:57;;;;;;;67.72;51.25;;;;;;;5.89;56.05;103572.44;5147473;28;20702;-44
2022/01/25 02:59:29;;;;;;;64.30;45.13;;;;;;;5.85;56.07;103555.06;5147038;28;20478;-44
2022/01/25 03:02:01;;;;;;;64.57;47.10;;;;;;;5.76;56.19;103544.88;5142591;28;20510;-46
2022/01/25 03:04:34;;;;;;;69.50;49.88;;;;;;;5.80;56.18;103557.00;5145802;28;20462;-45
2022/01/25 03:07:08;;;;;;;67.30;49.40;;;;;;;5.62;56.06;103508.66;5141535;28;20544;-44
2022/01/25 03:09:41;;;;;;;65.45;46.78;;;;;;;5.85;55.98;103544.56;5146424;28;20450;-44
2022/01/25 03:12:18;;;;;;;63.50;47.37;;;;;;;5.78;56.29;103536.06;5143621;28;20527;-45
2022/01/25 03:15:11;;;;;;;65.95;47.60;;;;;;;5.84;56.10;103545.50;5145400;28;20797;-45
2022/01/25 03:17:48;;;;;;;68.47;47.20;;;;;;;5.87;56.02;103553.25;5146811;28;20415;-44
2022/01/25 03:20:33;;;;;;;63.20;48.10;;;;;;;5.84;56.12;103544.63;5143439;28;20886;-49
2022/01/25 03:23:17;;;;;;;71.93;52.15;;;;;;;5.86;55.99;103542.81;5144337;28;20430;-45
2022/01/25 03:25:52;;;;;;;67.33;50.67;;;;;;;5.90;56.09;103537.41;5141841;28;20521;-47
2022/01/25 03:28:25;;;;;;;66.65;49.53;;;;;;;5.87;56.02;103541.91;5144333;28;20423;-45
2022/01/25 03:30:57;;;;;;;72.22;51.05;;;;;;;5.87;56.07;103545.38;5150182;28;20893;-47
2022/01/25 03:33:30;;;;;;;73.03;51.72;;;;;;;5.87;56.09;103537.50;5162606;28;20783;-44
2022/01/25 03:36:04;;;;;;;68.82;49.95;;;;;;;5.87;56.29;103542.75;5144883;28;20434;-44
2022/01/25 03:39:06;;;;;;;65.00;47.83;;;;;;;5.83;56.29;103535.91;5145718;28;20772;-46
2022/01/25 03:41:39;;;;;;;65.60;47.63;;;;;;;5.80;56.36;103537.78;5143789;28;20418;-44
2022/01/25 03:44:12;;;;;;;69.35;48.90;;;;;;;5.80;56.12;103536.03;5147612;28;20493;-43
2022/01/25 03:46:59;;;;;;;63.85;47.28;;;;;;;5.82;56.20;103544.66;5141221;28;20955;-44
2022/01/25 03:49:50;;;;;;;64.80;46.67;;;;;;;5.84;56.28;103540.25;5144056;28;20426;-47
2022/01/25 03:52:29;;;;;;;71.10;51.10;;;;;;;5.88;56.07;103541.00;5149018;28;20419;-44
2022/01/25 03:55:04;;;;;;;69.15;51.00;;;;;;;5.88;55.93;103530.50;5144231;28;20926;-48
2022/01/25 03:57:37;;;;;;;67.00;49.72;;;;;;;6.01;55.92;103539.72;5146782;28;20427;-45
2022/01/25 04:00:11;;;;;;;65.63;48.17;;;;;;;6.06;55.92;103536.91;5141088;28;20439;-44
2022/01/25 04:02:51;;;;;;;64.40;47.17;;;;;;;5.96;55.98;103524.13;5140487;28;20443;-45
2022/01/25 04:05:35;;;;;;;64.20;46.60;;;;;;;6.03;56.00;103537.00;5144555;28;20429;-44
2022/01/25 04:08:07;;;;;;;67.35;49.15;;;;;;;5.93;55.96;103545.19;5127302;28;20485;-49
2022/01/25 04:10:42;;;;;;;62.05;46.25;;;;;;;5.75;56.19;103528.28;5146097;28;20427;-45
2022/01/25 04:13:15;;;;;;;69.18;49.92;;;;;;;5.69;56.61;103543.38;5145296;28;20529;-47
2022/01/25 04:15:49;;;;;;;65.18;49.42;;;;;;;5.65;56.29;103536.53;5143159;28;20904;-45
2022/01/25 04:18:31;;;;;;;68.10;48.55;;;;;;;5.68;56.35;103536.44;5146770;28;20955;-44
2022/01/25 04:21:08;;;;;;;68.43;50.13;;;;;;;5.73;56.13;103534.53;5142983;28;20428;-45
2022/01/25 04:26:32;;;;;;;56.80;44.78;;;;;;;5.29;56.01;103452.97;5141877;28;20458;-46
2022/01/25 04:29:06;;;;;;;63.47;48.42;;;;;;;5.69;56.41;103528.50;5146499;28;20436;-48
2022/01/25 04:31:38;;;;;;;60.55;45.40;;;;;;;5.67;56.23;103526.88;5142427;28;20481;-44
2022/01/25 04:34:23;;;;;;;62.17;44.60;;;;;;;5.68;56.36;103521.56;5141767;28;20419;-47
2022/01/25 04:48:52;;;;;;;55.10;41.00;;;;;;;5.67;56.35;103526.88;5136659;28;20478;-45
2022/01/25 04:51:37;;;;;;;62.38;46.45;;;;;;;5.62;56.29;103497.31;5143612;28;20430;-44
2022/01/25 04:54:18;;;;;;;62.13;46.38;;;;;;;5.71;56.37;103505.72;5136585;28;20531;-47
2022/01/25 04:56:58;;;;;;;60.10;47.40;;;;;;;5.73;56.42;103508.31;5144156;28;20442;-46
2022/01/25 04:59:37;;;;;;;60.58;45.92;;;;;;;5.73;56.25;103506.53;5145403;28;20958;-44
2022/01/25 05:02:15;;;;;;;58.60;43.77;;;;;;;5.75;56.00;103495.97;5138731;28;20418;-48
2022/01/25 05:04:52;;;;;;;51.15;40.35;;;;;;;5.78;56.28;103508.97;5142655;28;20434;-45
2022/01/25 05:07:27;;;;;;;53.72;42.10;;;;;;;5.72;56.27;103503.94;5141611;28;20422;-46
2022/01/25 05:10:02;;;;;;;50.85;40.00;;;;;;;5.65;56.27;103505.06;5145987;28;20789;-45
2022/01/25 05:12:41;;;;;;;55.80;43.22;;;;;;;5.58;56.33;103499.19;5142062;28;20418;-47
2022/01/25 05:15:23;;;;;;;58.35;41.60;;;;;;;5.57;56.36;103496.59;5145857;28;20451;-53
2022/01/25 05:18:11;;;;;;;50.75;39.40;;;;;;;5.53;56.26;103494.09;5144146;28;20439;-45
2022/01/25 05:23:34;;;;;;;53.53;42.35;;;;;;;5.47;56.45;103501.31;5139071;28;20868;-50
2022/01/25 05:26:06;;;;;;;54.67;42.88;;;;;;;5.54;56.41;103493.19;5144915;28;20510;-46
2022/01/25 05:28:40;;;;;;;59.17;44.90;;;;;;;5.61;56.25;103499.09;5145465;28;20868;-45
2022/01/25 05:31:14;;;;;;;56.73;43.77;;;;;;;5.65;56.16;103502.47;5145007;28;20526;-45
2022/01/25 05:33:47;;;;;;;58.50;44.63;;;;;;;5.66;56.03;103509.41;5149180;28;20501;-44
2022/01/25 05:36:19;;;;;;;54.47;42.15;;;;;;;5.66;56.03;103512.03;5147709;28;20774;-44
2022/01/25 05:38:52;;;;;;;59.03;44.95;;;;;;;5.64;56.12;103514.72;5145368;28;20772;-44
2022/01/25 05:41:28;;;;;;;55.85;43.00;;;;;;;5.65;56.14;103511.16;5149397;28;20492;-44
2022/01/25 05:44:24;;;;;;;57.83;43.92;;;;;;;5.42;56.13;103472.66;5149816;28;20421;-44
2022/01/25 05:47:06;;;;;;;57.90;43.42;;;;;;;5.78;55.77;103524.72;5147225;28;20505;-46
2022/01/25 05:49:40;;;;;;;54.72;42.83;;;;;;;5.68;55.99;103495.34;5147273;28;20407;-44
2022/01/25 05:52:13;;;;;;;55.45;42.28;;;;;;;5.65;56.05;103516.41;5148494;28;20772;-49
2022/01/25 05:54:46;;;;;;;51.55;40.90;;;;;;;5.66;56.19;103525.13;5148440;28;20508;-48
2022/01/25 05:57:19;;;;;;;56.92;43.67;;;;;;;5.58;56.30;103521.94;5149044;28;20426;-46
2022/01/25 05:59:51;;;;;;;54.53;41.88;;;;;;;5.54;56.17;103529.91;5149344;28;20413;-50
2022/01/25 06:02:28;;;;;;;49.33;38.15;;;;;;;5.46;56.32;103526.66;5133800;28;20433;-47
2022/01/25 06:05:00;;;;;;;58.50;43.97;;;;;;;5.51;56.35;103529.13;5137665;28;20422;-45
2022/01/25 06:07:33;;;;;;;61.33;44.58;;;;;;;5.53;56.15;103525.53;5144392;28;20871;-45
2022/01/25 06:10:08;;;;;;;59.90;46.97;;;;;;;5.50;56.17;103528.25;5147976;28;20517;-46
2022/01/25 06:12:42;;;;;;;59.95;45.30;;;;;;;5.49;56.34;103525.72;5147603;28;20464;-43
2022/01/25 06:15:14;;;;;;;59.63;45.30;;;;;;;5.50;56.11;103528.25;5148449;28;20529;-44
2022/01/25 06:17:49;;;;;;;61.53;47.22;;;;;;;5.50;56.19;103528.25;5148544;28;20836;-45
2022/01/25 06:20:21;;;;;;;57.60;43.13;;;;;;;5.39;56.39;103514.69;5148316;28;20398;-44
2022/01/25 06:22:54;;;;;;;55.92;42.35;;;;;;;5.46;56.17;103526.66;5147917;28;20495;-47
2022/01/25 06:25:26;;;;;;;58.92;43.53;;;;;;;5.37;56.31;103510.38;5128335;28;20440;-46
2022/01/25 06:27:58;;;;;;;62.63;42.40;;;;;;;5.43;56.26;103529.38;5128378;28;20427;-44
2022/01/25 06:30:31;;;;;;;56.60;43.10;;;;;;;5.44;56.19;103528.47;5137798;28;20961;-47
2022/01/25 06:33:07;;;;;;;59.83;45.28;;;;;;;5.42;56.22;103525.06;5132270;28;20423;-45
2022/01/25 06:35:40;;;;;;;61.13;43.97;;;;;;;5.48;56.26;103535.34;5140514;28;20422;-44
2022/01/25 06:38:12;;;;;;;58.67;43.08;;;;;;;5.50;56.35;103523.03;5135275;28;20507;-46
2022/01/25 06:40:45;;;;;;;55.03;41.13;;;;;;;5.47;56.27;103525.75;5139804;28;20893;-48
2022/01/25 06:43:17;;;;;;;53.17;41.08;;;;;;;5.50;56.10;103528.25;5140867;28;20425;-45
2022/01/25 06:45:56;;;;;;;53.90;41.47;;;;;;;5.57;56.01;103528.91;5135922;28;20423;-44
2022/01/25 06:48:30;;;;;;;58.42;44.17;;;;;;;5.67;56.13;103537.34;5139090;28;20835;-44
2022/01/25 06:51:03;;;;;;;51.65;38.15;;;;;;;5.64;55.88;103538.31;5132361;28;20415;-47
2022/01/25 06:53:35;;;;;;;49.10;39.38;;;;;;;5.62;56.09;103547.13;5133171;28;20455;-47
2022/01/25 06:56:08;;;;;;;56.30;42.97;;;;;;;5.60;56.22;103538.44;5143585;28;20513;-46
2022/01/25 06:58:41;;;;;;;58.30;43.15;;;;;;;5.58;56.20;103530.66;5133144;28;20503;-43
2022/01/25 07:01:13;;;;;;;51.38;40.80;;;;;;;5.60;56.17;103533.19;5136434;28;20814;-46
2022/01/25 07:03:47;;;;;;;60.60;43.58;;;;;;;5.52;56.07;103530.84;5138004;28;20430;-45
2022/01/25 07:06:20;;;;;;;52.85;40.95;;;;;;;5.52;56.46;103530.84;5134890;28;20430;-46
2022/01/25 07:08:53;;;;;;;54.83;42.13;;;;;;;5.55;56.11;103542.09;5135330;28;20416;-47
2022/01/25 07:11:25;;;;;;;59.05;45.00;;;;;;;5.56;56.21;103548.19;5137839;28;20482;-45
2022/01/25 07:13:58;;;;;;;58.73;45.73;;;;;;;5.53;56.27;103541.28;5134342;28;20448;-44
2022/01/25 07:16:30;;;;;;;59.15;42.88;;;;;;;5.48;56.10;103545.81;5131085;28;20422;-45
2022/01/25 07:19:04;;;;;;;50.17;40.10;;;;;;;5.39;56.38;103535.63;5128760;28;20559;-48
2022/01/25 07:21:37;;;;;;;62.58;47.42;;;;;;;5.44;56.23;103541.56;5128970;28;20424;-47
2022/01/25 07:24:09;;;;;;;60.72;44.70;;;;;;;5.49;56.33;103541.44;5136709;28;20431;-48
2022/01/25 07:26:41;;;;;;;58.17;44.47;;;;;;;5.38;56.29;103528.66;5132186;28;20493;-48
2022/01/25 07:29:14;;;;;;;63.53;47.55;;;;;;;5.43;56.40;103523.28;5130266;28;20434;-46
2022/01/25 07:31:46;;;;;;;72.82;51.38;;;;;;;5.33;56.30;103504.41;5137472;28;20456;-46
2022/01/25 07:34:20;;;;;;;61.05;45.75;;;;;;;5.57;56.26;103541.16;5140768;28;20847;-45
2022/01/25 07:36:53;;;;;;;59.60;46.47;;;;;;;5.55;56.45;103536.84;5140162;28;20912;-48
2022/01/25 07:39:26;;;;;;;58.83;40.30;;;;;;;5.54;56.27;103534.25;5143505;28;20499;-50
2022/01/25 07:41:59;;;;;;;56.65;42.47;;;;;;;5.46;56.38;103534.53;5135735;28;20419;-47
2022/01/25 07:44:35;;;;;;;59.85;46.08;;;;;;;5.49;56.45;103521.31;5141096;28;20909;-49
2022/01/25 07:47:09;;;;;;;64.68;46.28;;;;;;;5.51;56.44;103522.13;5142008;28;20408;-46
2022/01/25 07:49:42;;;;;;;53.50;41.75;;;;;;;5.53;56.28;103530.78;5143201;28;20433;-48
2022/01/25 07:52:15;;;;;;;59.00;41.10;;;;;;;5.50;56.43;103537.91;5134120;28;20625;-48
2022/01/25 07:54:48;;;;;;;53.80;40.72;;;;;;;5.48;56.49;103534.47;5150835;28;20889;-44
2022/01/25 07:57:20;;;;;;;58.22;42.65;;;;;;;5.48;56.65;103537.97;5152823;28;20518;-46
2022/01/25 07:59:53;;;;;;;59.33;43.30;;;;;;;5.49;56.54;103530.94;5146609;28;20426;-46
2022/01/25 08:02:25;;;;;;;57.88;43.00;;;;;;;5.42;56.42;103530.31;5147652;28;20730;-49
2022/01/25 08:04:59;;;;;;;56.58;42.55;;;;;;;5.49;56.39;103537.03;5144692;28;20422;-47
2022/01/25 08:07:32;;;;;;;56.97;41.70;;;;;;;5.49;56.51;103536.19;5142659;28;20892;-48
2022/01/25 08:10:05;;;;;;;59.00;42.70;;;;;;;5.48;56.35;103544.94;5145344;28;20430;-46
2022/01/25 08:12:37;;;;;;;57.33;42.60;;;;;;;5.46;56.49;103539.75;5136538;28;20527;-50
2022/01/25 08:15:15;;;;;;;65.45;44.22;;;;;;;5.48;56.59;103550.19;5137134;28;20444;-50
2022/01/25 08:17:47;;;;;;;59.33;42.13;;;;;;;5.48;56.64;103530.09;5140531;28;20565;-46
2022/01/25 08:20:21;;;;;;;55.05;40.47;;;;;;;5.51;56.74;103530.00;5140245;28;20589;-50
2022/01/25 08:22:56;;;;;;;54.03;39.90;;;;;;;5.52;56.49;103534.31;5134275;28;20424;-49
2022/01/25 08:25:29;;;;;;;54.20;36.72;;;;;;;5.53;56.62;103545.66;5137355;28;20871;-45
2022/01/25 08:28:01;;;;;;;60.25;41.45;;;;;;;5.53;56.48;103522.06;5138876;28;20493;-48
2022/01/25 08:30:34;;;;;;;57.67;40.28;;;;;;;5.53;56.29;103532.56;5134790;28;20413;-48
2022/01/25 08:33:06;;;;;;;60.95;42.33;;;;;;;5.48;56.20;103503.88;5135979;28;20464;-49
2022/01/25 08:35:40;;;;;;;61.60;41.22;;;;;;;5.66;56.55;103528.59;5139767;28;20529;-48
2022/01/25 08:38:12;;;;;;;49.42;37.50;;;;;;;5.64;56.47;103534.84;5136276;28;20446;-45
2022/01/25 08:40:45;;;;;;;54.40;41.90;;;;;;;5.58;56.80;103524.56;5136408;28;20945;-45
2022/01/25 08:43:17;;;;;;;60.63;42.47;;;;;;;5.53;56.54;103522.06;5138246;28;20564;-47
2022/01/25 08:45:50;;;;;;;54.88;40.95;;;;;;;5.58;56.62;103530.66;5137388;28;20472;-47
2022/01/25 08:48:22;;;;;;;58.90;45.03;;;;;;;5.56;56.67;103535.06;5138487;28;20425;-47
2022/01/25 08:50:58;;;;;;;57.38;40.78;;;;;;;5.65;56.63;103526.91;5133893;28;20573;-46
2022/01/25 08:53:30;;;;;;;57.47;40.13;;;;;;;5.66;56.41;103522.50;5135768;28;20737;-48
2022/01/25 08:56:03;;;;;;;62.58;42.95;;;;;;;5.70;56.54;103532.00;5133886;28;20442;-45
2022/01/25 08:58:35;;;;;;;60.05;43.45;;;;;;;5.74;56.44;103528.38;5134607;28;20508;-45
2022/01/25 09:01:08;;;;;;;62.10;44.53;;;;;;;5.81;56.32;103536.88;5136360;28;20498;-44
2022/01/25 09:03:41;;;;;;;62.03;43.30;;;;;;;5.87;56.39;103540.13;5134483;28;20518;-48
2022/01/25 09:06:14;;;;;;;63.55;48.05;;;;;;;5.87;56.02;103534.03;5131317;28;20433;-45
2022/01/25 09:08:47;;;;;;;69.65;49.45;;;;;;;5.93;56.25;103542.59;5135511;28;20570;-45
2022/01/25 09:11:19;;;;;;;64.63;46.10;;;;;;;5.96;56.18;103542.47;5137213;28;20587;-51
2022/01/25 09:13:52;;;;;;;65.25;47.10;;;;;;;5.98;56.22;103551.16;5135900;28;20534;-45
2022/01/25 09:16:24;;;;;;;58.45;43.25;;;;;;;5.99;56.32;103542.38;5136794;28;20769;-46
2022/01/25 09:18:57;;;;;;;54.78;41.08;;;;;;;5.97;56.19;103553.81;5138298;28;20896;-49
2022/01/25 09:21:31;;;;;;;60.55;45.45;;;;;;;5.92;56.39;103555.72;5137183;28;20838;-51
2022/01/25 09:24:04;;;;;;;54.30;40.05;;;;;;;5.91;56.47;103565.34;5134018;28;21070;-49
2022/01/25 09:26:36;;;;;;;61.78;44.47;;;;;;;5.89;56.35;103561.94;5132732;28;20424;-46
2022/01/25 09:29:09;;;;;;;51.90;38.22;;;;;;;5.85;56.56;103560.31;5135787;28;20422;-47
2022/01/25 09:31:41;;;;;;;57.10;39.40;;;;;;;5.78;56.58;103566.69;5135931;28;20510;-47
2022/01/25 09:34:15;;;;;;;51.95;38.70;;;;;;;5.73;56.61;103571.22;5138357;28;20430;-50
2022/01/25 09:36:49;;;;;;;59.83;42.20;;;;;;;5.68;56.74;103573.16;5137642;28;21256;-46
2022/01/25 09:39:22;;;;;;;56.97;42.30;;;;;;;5.68;56.62;103562.66;5136939;28;22423;-48
2022/01/25 09:41:55;;;;;;;57.85;39.88;;;;;;;5.68;56.45;103563.50;5140666;28;20414;-45
2022/01/25 09:44:27;;;;;;;55.95;37.17;;;;;;;5.62;56.51;103562.84;5135524;28;20453;-49
2022/01/25 09:47:00;;;;;;;53.92;38.33;;;;;;;5.65;56.53;103558.38;5138390;28;20966;-45
2022/01/25 09:49:33;;;;;;;56.78;40.83;;;;;;;5.73;56.58;103566.00;5134309;28;20419;-49
2022/01/25 09:52:09;;;;;;;64.22;43.28;;;;;;;5.73;56.39;103560.75;5136172;28;20426;-51
2022/01/25 09:54:42;;;;;;;57.40;41.65;;;;;;;5.61;56.27;103563.78;5139550;28;20484;-49
2022/01/25 09:57:15;;;;;;;59.58;42.78;;;;;;;5.83;56.40;103583.13;5140060;28;20430;-55
2022/01/25 09:59:47;;;;;;;61.22;43.50;;;;;;;5.77;56.38;103591.19;5139374;28;20462;-48
2022/01/25 10:02:43;;;;;;;59.63;42.58;;;;;;;5.69;56.64;103593.19;5135274;28;20796;-47
2022/01/25 10:05:27;;;;;;;60.55;40.60;;;;;;;5.68;56.44;103601.97;5133016;28;20407;-46
2022/01/25 10:08:05;;;;;;;56.35;39.40;;;;;;;5.77;56.50;103596.44;5136050;28;20433;-48
2022/01/25 10:10:40;;;;;;;57.00;37.05;;;;;;;5.88;56.23;103596.91;5139980;28;20421;-45
2022/01/25 10:13:20;;;;;;;51.78;35.78;;;;;;;6.01;56.11;103602.66;5138438;28;20460;-46
2022/01/25 10:15:58;;;;;;;54.33;38.60;;;;;;;5.87;56.15;103573.38;5142157;28;21226;-44
2022/01/25 10:18:43;;;;;;;59.97;39.60;;;;;;;6.01;56.01;103594.81;5133281;28;20527;-46
2022/01/25 10:21:20;;;;;;;58.53;39.37;;;;;;;5.97;56.23;103595.78;5139457;28;20419;-49
2022/01/25 10:24:07;;;;;;;59.85;41.05;;;;;;;5.97;56.40;103611.53;5140374;28;20443;-45
2022/01/25 10:26:43;;;;;;;59.60;41.33;;;;;;;5.93;56.50;103610.78;5140117;28;20591;-45
2022/01/25 10:29:20;;;;;;;57.00;40.05;;;;;;;5.74;56.67;103572.94;5140784;28;21378;-46
2022/01/25 10:31:57;;;;;;;63.27;45.70;;;;;;;5.79;56.56;103586.72;5138658;28;20520;-46
2022/01/25 10:34:33;;;;;;;56.25;40.80;;;;;;;5.89;56.24;103597.81;5136206;28;20428;-48
2022/01/25 10:37:09;;;;;;;62.20;43.05;;;;;;;5.88;56.47;103607.41;5144928;28;20911;-47
2022/01/25 10:39:46;;;;;;;58.15;41.05;;;;;;;5.89;56.26;103606.53;5131014;28;20467;-47
2022/01/25 10:42:23;;;;;;;57.40;41.03;;;;;;;5.82;56.37;103597.13;5145530;28;20461;-48
2022/01/25 10:44:59;;;;;;;62.17;44.03;;;;;;;5.82;56.50;103602.38;5143027;28;20788;-44
2022/01/25 10:47:41;;;;;;;60.40;43.42;;;;;;;5.89;56.47;103606.53;5146790;28;20828;-48
2022/01/25 10:50:15;;;;;;;62.08;45.47;;;;;;;5.89;56.31;103606.53;5146372;28;20477;-47
2022/01/25 10:53:03;;;;;;;62.53;45.33;;;;;;;5.89;56.45;103614.38;5145159;28;20485;-48
2022/01/25 10:55:45;;;;;;;67.82;46.72;;;;;;;5.87;56.59;103610.09;5144564;28;20442;-48
2022/01/25 10:58:18;;;;;;;58.60;42.47;;;;;;;5.91;56.53;103615.19;5147205;28;20430;-47
2022/01/25 11:00:54;;;;;;;64.22;42.45;;;;;;;5.80;56.42;103571.88;5147137;28;20858;-47
2022/01/25 11:03:29;;;;;;;61.93;41.03;;;;;;;6.00;56.39;103604.41;5145607;28;20568;-49
2022/01/25 11:06:15;;;;;;;66.13;43.67;;;;;;;5.98;56.24;103606.25;5148280;28;20413;-46
2022/01/25 11:08:50;;;;;;;63.72;41.33;;;;;;;5.96;56.19;103615.06;5146714;28;20426;-45
2022/01/25 11:11:30;;;;;;;62.17;40.70;;;;;;;5.94;56.26;103609.00;5146159;28;21077;-45
2022/01/25 11:16:51;;;;;;;67.35;45.45;;;;;;;5.92;56.29;103611.66;5145573;28;20430;-46
2022/01/25 11:19:25;;;;;;;62.38;43.08;;;;;;;5.90;56.37;103600.34;5129421;28;20425;-48
2022/01/25 11:21:59;;;;;;;64.22;41.10;;;;;;;5.88;56.51;103606.56;5137092;28;20826;-45
2022/01/25 11:24:34;;;;;;;64.70;42.88;;;;;;;5.84;56.52;103595.31;5147080;28;20411;-45
2022/01/25 11:27:08;;;;;;;67.28;42.72;;;;;;;5.81;56.67;103595.41;5142127;28;20420;-52
2022/01/25 11:29:43;;;;;;;67.40;45.55;;;;;;;5.83;56.58;103583.13;5144746;28;20466;-47
2022/01/25 11:32:20;;;;;;;70.13;44.53;;;;;;;5.81;56.76;103573.59;5141478;28;20466;-49
2022/01/25 11:34:54;;;;;;;70.20;46.20;;;;;;;5.79;56.89;103571.00;5130929;28;20801;-49
2022/01/25 11:37:35;;;;;;;70.05;46.55;;;;;;;5.79;56.83;103568.38;5132594;28;20412;-45
2022/01/25 11:40:23;;;;;;;68.93;45.08;;;;;;;5.85;56.82;103570.78;5131203;28;20432;-51
2022/01/25 11:43:00;;;;;;;91.17;59.43;;;;;;;5.88;56.80;103570.69;5136856;28;20420;-48
2022/01/25 11:45:35;;;;;;;76.50;50.43;;;;;;;5.92;56.93;103564.44;5137000;28;20543;-46
2022/01/25 11:48:08;;;;;;;70.65;46.00;;;;;;;5.97;57.07;103562.53;5146785;28;20423;-43
2022/01/25 11:50:43;;;;;;;76.20;49.80;;;;;;;6.04;56.89;103564.94;5146311;28;20541;-45
2022/01/25 11:53:19;;;;;;;73.50;48.53;;;;;;;5.86;56.91;103530.56;5146521;28;20512;-48
2022/01/25 11:55:55;;;;;;;78.88;50.03;;;;;;;6.08;57.02;103558.72;5146334;28;20426;-49
2022/01/25 11:58:31;;;;;;;68.47;45.08;;;;;;;6.12;56.92;103557.69;5146359;28;20502;-45
2022/01/25 12:01:09;;;;;;;75.30;48.95;;;;;;;6.07;56.89;103541.22;5144813;28;20423;-48
2022/01/25 12:03:44;;;;;;;71.88;45.53;;;;;;;6.12;56.95;103547.19;5133061;28;20439;-46
2022/01/25 12:06:24;;;;;;;74.97;49.20;;;;;;;6.10;56.96;103551.63;5133700;28;20844;-45
2022/01/25 12:09:12;;;;;;;79.47;48.42;;;;;;;6.13;56.94;103552.41;5136317;28;20420;-45
2022/01/25 12:11:49;;;;;;;76.15;46.20;;;;;;;5.96;56.83;103521.50;5132390;28;20435;-45
2022/01/25 12:14:31;;;;;;;75.47;44.97;;;;;;;6.10;56.97;103543.75;5133687;28;20428;-48
2022/01/25 12:17:17;;;;;;;67.32;45.45;;;;;;;6.18;57.07;103536.47;5132164;28;20443;-46
2022/01/25 12:19:53;;;;;;;69.15;43.28;;;;;;;6.17;56.96;103537.41;5132747;28;20792;-45
2022/01/25 12:22:36;;;;;;;67.25;42.40;;;;;;;6.11;56.84;103520.09;5131301;28;20507;-47
2022/01/25 12:25:22;;;;;;;71.90;46.28;;;;;;;6.18;56.84;103525.97;5129179;28;20460;-45
2022/01/25 12:27:58;;;;;;;73.30;45.70;;;;;;;6.19;57.25;103518.06;5126975;28;20427;-44
2022/01/25 12:30:38;;;;;;;75.65;44.55;;;;;;;6.18;57.05;103516.34;5133101;28;20412;-46
2022/01/25 12:33:19;;;;;;;75.22;44.38;;;;;;;6.23;57.21;103518.81;5130743;28;20455;-51
2022/01/25 12:35:54;;;;;;;65.10;42.50;;;;;;;6.26;57.15;103523.09;5132726;28;20470;-44
2022/01/25 12:38:39;;;;;;;70.10;41.75;;;;;;;6.24;57.11;103512.63;5132239;28;20439;-48
2022/01/25 12:41:15;;;;;;;67.37;42.83;;;;;;;6.19;56.95;103523.31;5126849;28;20462;-49
2022/01/25 12:43:53;;;;;;;70.75;43.08;;;;;;;6.16;57.25;103517.28;5130267;28;20439;-46
2022/01/25 12:46:33;;;;;;;70.80;45.20;;;;;;;6.19;57.37;103517.19;5140314;28;20916;-46
2022/01/25 12:49:10;;;;;;;74.55;46.22;;;;;;;6.16;57.39;103517.28;5137058;28;20778;-44
2022/01/25 12:51:45;;;;;;;73.80;43.80;;;;;;;6.16;57.21;103512.03;5141056;28;20879;-45
2022/01/25 12:54:18;;;;;;;76.68;47.08;;;;;;;6.15;57.31;103510.34;5138283;28;20537;-45
2022/01/25 12:56:52;;;;;;;70.25;44.88;;;;;;;6.13;57.36;103514.78;5137345;28;20913;-47
2022/01/25 12:59:27;;;;;;;74.05;45.50;;;;;;;6.16;57.42;103512.03;5138245;28;20549;-49